sensor_id;sensor_type;location;lat;lon;timestamp;pressure;altitude;pressure_sealevel;temperature;humidity
69402;BME280;56589;51.992;5.924;2023-05-10T00:01:39;100283.19;;;12.77;87.71
69402;BME280;56589;51.992;5.924;2023-05-10T00:04:05;100280.56;;;12.77;87.41
69402;BME280;56589;51.992;5.924;2023-05-10T00:06:31;100280.56;;;12.77;87.84
69402;BME280;56589;51.992;5.924;2023-05-10T00:08:59;100279.34;;;12.81;87.76
69402;BME280;56589;51.992;5.924;2023-05-10T00:11:25;100280.06;;;12.83;87.75
69402;BME280;56589;51.992;5.924;2023-05-10T00:13:51;100280.78;;;12.85;87.94
69402;BME280;56589;51.992;5.924;2023-05-10T00:16:17;100271.78;;;12.87;87.40
69402;BME280;56589;51.992;5.924;2023-05-10T00:18:43;100283.03;;;12.89;87.86
69402;BME280;56589;51.992;5.924;2023-05-10T00:21:08;100283.72;;;12.91;87.53
69402;BME280;56589;51.992;5.924;2023-05-10T00:23:34;100276.56;;;12.93;87.48
69402;BME280;56589;51.992;5.924;2023-05-10T00:26:03;100279.06;;;12.95;87.78
69402;BME280;56589;51.992;5.924;2023-05-10T00:28:29;100280.59;;;12.97;87.75
69402;BME280;56589;51.992;5.924;2023-05-10T00:30:55;100271.03;;;12.96;87.40
69402;BME280;56589;51.992;5.924;2023-05-10T00:33:20;100279.06;;;12.95;87.45
69402;BME280;56589;51.992;5.924;2023-05-10T00:35:46;100265.06;;;12.94;87.48
69402;BME280;56589;51.992;5.924;2023-05-10T00:38:12;100272.00;;;12.95;87.53
69402;BME280;56589;51.992;5.924;2023-05-10T00:40:38;100269.34;;;12.95;87.79
69402;BME280;56589;51.992;5.924;2023-05-10T00:43:07;100269.81;;;13.01;87.66
69402;BME280;56589;51.992;5.924;2023-05-10T00:45:33;100274.00;;;13.03;87.92
69402;BME280;56589;51.992;5.924;2023-05-10T00:48:02;100272.91;;;13.06;88.03
69402;BME280;56589;51.992;5.924;2023-05-10T00:50:28;100259.75;;;13.06;87.42
69402;BME280;56589;51.992;5.924;2023-05-10T00:52:55;100267.38;;;13.09;87.60
69402;BME280;56589;51.992;5.924;2023-05-10T00:55:21;100266.69;;;13.07;87.37
69402;BME280;56589;51.992;5.924;2023-05-10T00:57:47;100270.16;;;13.07;87.25
69402;BME280;56589;51.992;5.924;2023-05-10T01:00:16;100263.22;;;13.06;87.79
69402;BME280;56589;51.992;5.924;2023-05-10T01:02:42;100266.69;;;13.07;87.39
69402;BME280;56589;51.992;5.924;2023-05-10T01:05:08;100262.38;;;13.06;87.52
69402;BME280;56589;51.992;5.924;2023-05-10T01:07:34;100261.41;;;13.07;87.80
69402;BME280;56589;51.992;5.924;2023-05-10T01:10:00;100264.88;;;13.07;87.50
69402;BME280;56589;51.992;5.924;2023-05-10T01:12:26;100263.91;;;13.08;87.86
69402;BME280;56589;51.992;5.924;2023-05-10T01:14:53;100258.50;;;13.10;87.85
69402;BME280;56589;51.992;5.924;2023-05-10T01:17:22;100266.28;;;13.11;87.53
69402;BME280;56589;51.992;5.924;2023-05-10T01:19:49;100264.50;;;13.12;87.32
69402;BME280;56589;51.992;5.924;2023-05-10T01:22:36;100266.28;;;13.11;87.72
69402;BME280;56589;51.992;5.924;2023-05-10T01:25:37;100255.88;;;13.10;87.58
69402;BME280;56589;51.992;5.924;2023-05-10T01:28:42;100261.88;;;13.12;87.59
69402;BME280;56589;51.992;5.924;2023-05-10T01:31:55;100264.50;;;13.12;87.32
69402;BME280;56589;51.992;5.924;2023-05-10T01:34:35;100267.84;;;13.14;87.28
69402;BME280;56589;51.992;5.924;2023-05-10T01:37:19;100269.50;;;13.15;87.50
69402;BME280;56589;51.992;5.924;2023-05-10T01:39:56;100267.69;;;13.15;87.42
69402;BME280;56589;51.992;5.924;2023-05-10T01:42:33;100270.19;;;13.17;87.72
69402;BME280;56589;51.992;5.924;2023-05-10T01:45:11;100270.19;;;13.17;87.81
69402;BME280;56589;51.992;5.924;2023-05-10T01:47:48;100265.66;;;13.19;87.53
69402;BME280;56589;51.992;5.924;2023-05-10T01:50:22;100262.88;;;13.20;87.36
69402;BME280;56589;51.992;5.924;2023-05-10T01:52:53;100267.06;;;13.23;87.63
69402;BME280;56589;51.992;5.924;2023-05-10T01:55:21;100263.84;;;13.19;87.53
69402;BME280;56589;51.992;5.924;2023-05-10T01:58:00;100264.56;;;13.21;87.59
69402;BME280;56589;51.992;5.924;2023-05-10T02:00:31;100267.88;;;13.23;87.45
69402;BME280;56589;51.992;5.924;2023-05-10T02:03:05;100266.81;;;13.26;87.52
69402;BME280;56589;51.992;5.924;2023-05-10T02:05:34;100266.81;;;13.26;87.65
69402;BME280;56589;51.992;5.924;2023-05-10T02:08:03;100269.44;;;13.26;87.61
69402;BME280;56589;51.992;5.924;2023-05-10T02:10:32;100271.13;;;13.27;87.57
69402;BME280;56589;51.992;5.924;2023-05-10T02:13:02;100271.13;;;13.27;87.27
69402;BME280;56589;51.992;5.924;2023-05-10T02:15:29;100278.19;;;13.27;87.11
69402;BME280;56589;51.992;5.924;2023-05-10T02:17:57;100273.75;;;13.27;86.89
69402;BME280;56589;51.992;5.924;2023-05-10T02:20:29;100271.94;;;13.28;87.05
69402;BME280;56589;51.992;5.924;2023-05-10T02:22:58;100277.50;;;13.24;87.16
69402;BME280;56589;51.992;5.924;2023-05-10T02:25:26;100277.59;;;13.23;87.35
69402;BME280;56589;51.992;5.924;2023-05-10T02:27:56;100275.25;;;13.20;87.20
69402;BME280;56589;51.992;5.924;2023-05-10T02:30:26;100280.50;;;13.20;87.48
69402;BME280;56589;51.992;5.924;2023-05-10T02:32:54;100279.69;;;13.19;87.36
69402;BME280;56589;51.992;5.924;2023-05-10T02:35:22;100290.22;;;13.19;87.30
69402;BME280;56589;51.992;5.924;2023-05-10T02:37:53;100293.00;;;13.18;87.07
69402;BME280;56589;51.992;5.924;2023-05-10T02:40:21;100290.34;;;13.18;87.52
69402;BME280;56589;51.992;5.924;2023-05-10T02:42:51;100290.22;;;13.19;87.55
69402;BME280;56589;51.992;5.924;2023-05-10T02:45:23;100289.25;;;13.20;87.07
69402;BME280;56589;51.992;5.924;2023-05-10T02:47:51;100298.13;;;13.19;87.46
69402;BME280;56589;51.992;5.924;2023-05-10T02:50:17;100286.75;;;13.19;87.46
69402;BME280;56589;51.992;5.924;2023-05-10T02:52:47;100294.91;;;13.16;87.13
69402;BME280;56589;51.992;5.924;2023-05-10T02:55:22;100294.34;;;13.12;87.44
69402;BME280;56589;51.992;5.924;2023-05-10T02:57:58;100299.13;;;13.07;87.12
69402;BME280;56589;51.992;5.924;2023-05-10T03:00:26;100291.59;;;13.03;87.41
69402;BME280;56589;51.992;5.924;2023-05-10T03:02:52;100299.78;;;13.00;87.21
69402;BME280;56589;51.992;5.924;2023-05-10T03:05:18;100294.50;;;13.00;87.58
69402;BME280;56589;51.992;5.924;2023-05-10T03:07:45;100290.75;;;13.02;87.81
69402;BME280;56589;51.992;5.924;2023-05-10T03:10:11;100289.81;;;13.03;87.28
69402;BME280;56589;51.992;5.924;2023-05-10T03:12:55;100299.28;;;13.06;87.36
69402;BME280;56589;51.992;5.924;2023-05-10T03:15:32;100296.03;;;13.02;87.01
69402;BME280;56589;51.992;5.924;2023-05-10T03:18:27;100301.69;;;12.97;87.33
69402;BME280;56589;51.992;5.924;2023-05-10T03:20:57;100303.47;;;12.97;87.25
69402;BME280;56589;51.992;5.924;2023-05-10T03:23:30;100296.53;;;12.96;87.72
69402;BME280;56589;51.992;5.924;2023-05-10T03:26:01;100301.53;;;12.99;87.45
69402;BME280;56589;51.992;5.924;2023-05-10T03:28:33;100304.19;;;12.99;87.58
69402;BME280;56589;51.992;5.924;2023-05-10T03:31:00;100300.97;;;12.95;87.30
69402;BME280;56589;51.992;5.924;2023-05-10T03:33:28;100308.41;;;12.90;86.88
69402;BME280;56589;51.992;5.924;2023-05-10T03:35:54;100304.25;;;12.88;87.49
69402;BME280;56589;51.992;5.924;2023-05-10T03:38:20;100318.13;;;12.90;87.24
69402;BME280;56589;51.992;5.924;2023-05-10T03:40:46;100305.78;;;12.90;87.36
69402;BME280;56589;51.992;5.924;2023-05-10T03:43:12;100312.00;;;12.89;87.08
69402;BME280;56589;51.992;5.924;2023-05-10T03:45:40;100312.16;;;12.88;87.23
69402;BME280;56589;51.992;5.924;2023-05-10T03:48:06;100307.94;;;12.85;87.05
69402;BME280;56589;51.992;5.924;2023-05-10T03:50:32;100315.00;;;12.85;87.08
69402;BME280;56589;51.992;5.924;2023-05-10T03:52:57;100315.16;;;12.83;87.22
69402;BME280;56589;51.992;5.924;2023-05-10T03:55:23;100322.44;;;12.80;87.17
69402;BME280;56589;51.992;5.924;2023-05-10T03:57:49;100333.00;;;12.80;86.83
69402;BME280;56589;51.992;5.924;2023-05-10T04:00:16;100329.78;;;12.76;86.75
69402;BME280;56589;51.992;5.924;2023-05-10T04:02:44;100330.00;;;12.73;87.09
69402;BME280;56589;51.992;5.924;2023-05-10T04:05:11;100336.25;;;12.72;87.01
69402;BME280;56589;51.992;5.924;2023-05-10T04:07:36;100335.41;;;12.71;86.49
69402;BME280;56589;51.992;5.924;2023-05-10T04:10:03;100338.19;;;12.70;86.51
69402;BME280;56589;51.992;5.924;2023-05-10T04:12:29;100334.81;;;12.68;86.62
69402;BME280;56589;51.992;5.924;2023-05-10T04:14:55;100339.25;;;12.67;86.70
69402;BME280;56589;51.992;5.924;2023-05-10T04:17:21;100336.50;;;12.69;87.02
69402;BME280;56589;51.992;5.924;2023-05-10T04:19:49;100337.34;;;12.69;86.44
69402;BME280;56589;51.992;5.924;2023-05-10T04:22:15;100342.00;;;12.66;86.39
69402;BME280;56589;51.992;5.924;2023-05-10T04:24:41;100338.53;;;12.65;86.99
69402;BME280;56589;51.992;5.924;2023-05-10T04:27:07;100341.88;;;12.67;86.86
69402;BME280;56589;51.992;5.924;2023-05-10T04:29:33;100343.31;;;12.71;86.82
69402;BME280;56589;51.992;5.924;2023-05-10T04:31:58;100348.72;;;12.70;86.28
69402;BME280;56589;51.992;5.924;2023-05-10T04:34:24;100347.03;;;12.69;86.64
69402;BME280;56589;51.992;5.924;2023-05-10T04:36:53;100347.28;;;12.66;86.26
69402;BME280;56589;51.992;5.924;2023-05-10T04:39:18;100341.31;;;12.64;86.57
69402;BME280;56589;51.992;5.924;2023-05-10T04:41:44;100352.53;;;12.66;86.38
69402;BME280;56589;51.992;5.924;2023-05-10T04:44:10;100352.91;;;12.61;86.48
69402;BME280;56589;51.992;5.924;2023-05-10T04:46:36;100347.88;;;12.58;86.67
69402;BME280;56589;51.992;5.924;2023-05-10T04:49:01;100347.06;;;12.58;86.54
69402;BME280;56589;51.992;5.924;2023-05-10T04:51:27;100343.19;;;12.62;86.93
69402;BME280;56589;51.992;5.924;2023-05-10T04:53:56;100344.03;;;12.62;86.91
69402;BME280;56589;51.992;5.924;2023-05-10T04:56:22;100349.31;;;12.62;86.68
69402;BME280;56589;51.992;5.924;2023-05-10T04:58:47;100344.91;;;12.63;86.73
69402;BME280;56589;51.992;5.924;2023-05-10T05:01:13;100355.31;;;12.64;86.77
69402;BME280;56589;51.992;5.924;2023-05-10T05:03:39;100353.25;;;12.68;86.49
69402;BME280;56589;51.992;5.924;2023-05-10T05:06:05;100354.94;;;12.69;86.51
69402;BME280;56589;51.992;5.924;2023-05-10T05:08:32;100354.81;;;12.70;86.93
69402;BME280;56589;51.992;5.924;2023-05-10T05:11:00;100360.78;;;12.73;86.90
69402;BME280;56589;51.992;5.924;2023-05-10T05:13:26;100348.44;;;12.73;86.55
69402;BME280;56589;51.992;5.924;2023-05-10T05:15:52;100350.13;;;12.74;86.36
69402;BME280;56589;51.992;5.924;2023-05-10T05:18:18;100363.06;;;12.77;86.49
69402;BME280;56589;51.992;5.924;2023-05-10T05:20:43;100366.53;;;12.78;86.23
69402;BME280;56589;51.992;5.924;2023-05-10T05:23:09;100360.31;;;12.79;86.32
69402;BME280;56589;51.992;5.924;2023-05-10T05:25:35;100361.88;;;12.81;86.72
69402;BME280;56589;51.992;5.924;2023-05-10T05:28:04;100361.59;;;12.84;86.39
69402;BME280;56589;51.992;5.924;2023-05-10T05:30:30;100369.38;;;12.86;86.89
69402;BME280;56589;51.992;5.924;2023-05-10T05:32:55;100362.09;;;12.89;86.58
69402;BME280;56589;51.992;5.924;2023-05-10T05:35:21;100373.31;;;12.91;86.29
69402;BME280;56589;51.992;5.924;2023-05-10T05:37:47;100362.56;;;12.94;86.45
69402;BME280;56589;51.992;5.924;2023-05-10T05:40:13;100366.50;;;13.00;86.88
69402;BME280;56589;51.992;5.924;2023-05-10T05:42:39;100362.53;;;13.06;86.85
69402;BME280;56589;51.992;5.924;2023-05-10T05:45:08;100370.16;;;13.09;86.44
69402;BME280;56589;51.992;5.924;2023-05-10T05:47:34;100371.59;;;13.13;86.42
69402;BME280;56589;51.992;5.924;2023-05-10T05:50:00;100369.44;;;13.18;86.33
69402;BME280;56589;51.992;5.924;2023-05-10T05:52:26;100370.59;;;13.25;86.23
69402;BME280;56589;51.992;5.924;2023-05-10T05:54:52;100379.81;;;13.31;86.29
69402;BME280;56589;51.992;5.924;2023-05-10T05:57:17;100368.63;;;13.38;86.07
69402;BME280;56589;51.992;5.924;2023-05-10T05:59:43;100367.16;;;13.45;86.06
69402;BME280;56589;51.992;5.924;2023-05-10T06:02:12;100374.59;;;13.51;86.10
69402;BME280;56589;51.992;5.924;2023-05-10T06:04:37;100383.78;;;13.57;85.85
69402;BME280;56589;51.992;5.924;2023-05-10T06:07:03;100384.50;;;13.59;85.56
69402;BME280;56589;51.992;5.924;2023-05-10T06:09:29;100383.66;;;13.59;85.22
69402;BME280;56589;51.992;5.924;2023-05-10T06:11:55;100390.50;;;13.61;85.70
69402;BME280;56589;51.992;5.924;2023-05-10T06:14:21;100382.31;;;13.64;85.06
69402;BME280;56589;51.992;5.924;2023-05-10T06:16:46;100387.72;;;13.63;85.33
69402;BME280;56589;51.992;5.924;2023-05-10T06:19:15;100387.28;;;13.58;84.62
69402;BME280;56589;51.992;5.924;2023-05-10T06:21:41;100393.06;;;13.51;84.99
69402;BME280;56589;51.992;5.924;2023-05-10T06:24:06;100391.63;;;13.47;85.29
69402;BME280;56589;51.992;5.924;2023-05-10T06:26:32;100395.00;;;13.49;84.95
69402;BME280;56589;51.992;5.924;2023-05-10T06:28:58;100396.78;;;13.49;84.78
69402;BME280;56589;51.992;5.924;2023-05-10T06:31:24;100403.13;;;13.46;84.89
69402;BME280;56589;51.992;5.924;2023-05-10T06:33:50;100406.72;;;13.45;85.19
69402;BME280;56589;51.992;5.924;2023-05-10T06:36:18;100410.31;;;13.44;84.87
69402;BME280;56589;51.992;5.924;2023-05-10T06:38:44;100409.72;;;13.41;85.15
69402;BME280;56589;51.992;5.924;2023-05-10T06:41:10;100413.47;;;13.38;85.02
69402;BME280;56589;51.992;5.924;2023-05-10T06:43:39;100408.41;;;13.35;84.85
69402;BME280;56589;51.992;5.924;2023-05-10T06:46:05;100412.28;;;13.31;84.57
69402;BME280;56589;51.992;5.924;2023-05-10T06:48:31;100411.94;;;13.24;84.63
69402;BME280;56589;51.992;5.924;2023-05-10T06:50:59;100425.50;;;13.20;85.04
69402;BME280;56589;51.992;5.924;2023-05-10T06:53:27;100427.44;;;13.18;85.03
69402;BME280;56589;51.992;5.924;2023-05-10T06:55:55;100422.41;;;13.15;85.44
69402;BME280;56589;51.992;5.924;2023-05-10T06:58:21;100421.28;;;13.17;85.51
69402;BME280;56589;51.992;5.924;2023-05-10T07:00:46;100429.66;;;13.22;85.16
69402;BME280;56589;51.992;5.924;2023-05-10T07:03:12;100432.22;;;13.24;85.09
69402;BME280;56589;51.992;5.924;2023-05-10T07:05:38;100430.28;;;13.26;85.34
69402;BME280;56589;51.992;5.924;2023-05-10T07:08:04;100431.81;;;13.29;85.22
69402;BME280;56589;51.992;5.924;2023-05-10T07:10:32;100430.47;;;13.34;85.43
69402;BME280;56589;51.992;5.924;2023-05-10T07:12:58;100436.34;;;13.38;85.36
69402;BME280;56589;51.992;5.924;2023-05-10T07:15:24;100438.59;;;13.42;85.21
69402;BME280;56589;51.992;5.924;2023-05-10T07:17:50;100438.13;;;13.48;85.12
69402;BME280;56589;51.992;5.924;2023-05-10T07:20:16;100440.75;;;13.48;84.64
69402;BME280;56589;51.992;5.924;2023-05-10T07:22:42;100440.41;;;13.53;85.14
69402;BME280;56589;51.992;5.924;2023-05-10T07:25:08;100450.56;;;13.58;84.95
69402;BME280;56589;51.992;5.924;2023-05-10T07:27:36;100452.72;;;13.64;85.21
69402;BME280;56589;51.992;5.924;2023-05-10T07:30:02;100448.59;;;13.71;85.12
69402;BME280;56589;51.992;5.924;2023-05-10T07:32:29;100454.94;;;13.80;84.77
69402;BME280;56589;51.992;5.924;2023-05-10T07:34:54;100461.38;;;13.87;84.62
69402;BME280;56589;51.992;5.924;2023-05-10T07:37:20;100454.03;;;13.90;84.58
69402;BME280;56589;51.992;5.924;2023-05-10T07:39:46;100456.88;;;13.98;84.69
69402;BME280;56589;51.992;5.924;2023-05-10T07:42:12;100458.75;;;14.08;84.42
69402;BME280;56589;51.992;5.924;2023-05-10T07:44:40;100459.66;;;14.18;84.33
69402;BME280;56589;51.992;5.924;2023-05-10T07:47:06;100464.28;;;14.25;84.27
69402;BME280;56589;51.992;5.924;2023-05-10T07:49:33;100463.06;;;14.29;83.36
69402;BME280;56589;51.992;5.924;2023-05-10T07:51:59;100468.78;;;14.35;83.61
69402;BME280;56589;51.992;5.924;2023-05-10T07:54:24;100471.75;;;14.41;83.63
69402;BME280;56589;51.992;5.924;2023-05-10T07:56:50;100469.53;;;14.46;83.41
69402;BME280;56589;51.992;5.924;2023-05-10T07:59:17;100476.22;;;14.50;83.34
69402;BME280;56589;51.992;5.924;2023-05-10T08:01:45;100466.94;;;14.56;83.50
69402;BME280;56589;51.992;5.924;2023-05-10T08:04:11;100481.81;;;14.57;82.39
69402;BME280;56589;51.992;5.924;2023-05-10T08:06:37;100470.69;;;14.53;82.40
69402;BME280;56589;51.992;5.924;2023-05-10T08:09:03;100477.34;;;14.48;82.46
69402;BME280;56589;51.992;5.924;2023-05-10T08:11:29;100486.09;;;14.48;82.82
69402;BME280;56589;51.992;5.924;2023-05-10T08:13:55;100479.31;;;14.55;82.98
69402;BME280;56589;51.992;5.924;2023-05-10T08:16:21;100481.91;;;14.67;83.30
69402;BME280;56589;51.992;5.924;2023-05-10T08:18:49;100482.00;;;14.86;82.97
69402;BME280;56589;51.992;5.924;2023-05-10T08:21:15;100486.91;;;15.00;82.27
69402;BME280;56589;51.992;5.924;2023-05-10T08:23:41;100481.38;;;15.13;81.79
69402;BME280;56589;51.992;5.924;2023-05-10T08:26:07;100483.22;;;15.22;81.33
69402;BME280;56589;51.992;5.924;2023-05-10T08:28:33;100489.63;;;15.29;81.49
69402;BME280;56589;51.992;5.924;2023-05-10T08:30:59;100482.13;;;15.34;80.58
69402;BME280;56589;51.992;5.924;2023-05-10T08:33:24;100494.53;;;15.34;80.49
69402;BME280;56589;51.992;5.924;2023-05-10T08:35:53;100496.34;;;15.33;80.09
69402;BME280;56589;51.992;5.924;2023-05-10T08:38:19;100496.31;;;15.24;79.52
69402;BME280;56589;51.992;5.924;2023-05-10T08:40:45;100504.09;;;15.16;79.70
69402;BME280;56589;51.992;5.924;2023-05-10T08:43:13;100507.97;;;15.11;79.52
69402;BME280;56589;51.992;5.924;2023-05-10T08:45:40;100506.13;;;15.02;78.87
69402;BME280;56589;51.992;5.924;2023-05-10T08:48:08;100519.25;;;14.83;78.59
69402;BME280;56589;51.992;5.924;2023-05-10T08:50:36;100522.53;;;14.66;79.18
69402;BME280;56589;51.992;5.924;2023-05-10T08:53:10;100523.41;;;14.55;79.61
69402;BME280;56589;51.992;5.924;2023-05-10T08:55:37;100531.31;;;14.55;79.81
69402;BME280;56589;51.992;5.924;2023-05-10T08:58:03;100530.69;;;14.63;79.55
69402;BME280;56589;51.992;5.924;2023-05-10T09:00:29;100532.69;;;14.70;79.83
69402;BME280;56589;51.992;5.924;2023-05-10T09:02:57;100541.13;;;14.85;79.82
69402;BME280;56589;51.992;5.924;2023-05-10T09:05:23;100541.59;;;15.00;79.42
69402;BME280;56589;51.992;5.924;2023-05-10T09:07:49;100539.56;;;15.13;79.31
69402;BME280;56589;51.992;5.924;2023-05-10T09:10:17;100544.31;;;15.19;78.23
69402;BME280;56589;51.992;5.924;2023-05-10T09:12:44;100549.50;;;15.21;77.90
69402;BME280;56589;51.992;5.924;2023-05-10T09:15:12;100547.25;;;15.26;78.10
69402;BME280;56589;51.992;5.924;2023-05-10T09:17:41;100547.59;;;15.42;78.16
69402;BME280;56589;51.992;5.924;2023-05-10T09:20:09;100550.84;;;15.65;78.20
69402;BME280;56589;51.992;5.924;2023-05-10T09:22:35;100549.63;;;15.79;76.69
69402;BME280;56589;51.992;5.924;2023-05-10T09:25:06;100551.88;;;15.83;76.03
69402;BME280;56589;51.992;5.924;2023-05-10T09:27:36;100568.59;;;15.93;76.25
69402;BME280;56589;51.992;5.924;2023-05-10T09:30:03;100566.94;;;16.02;75.59
69402;BME280;56589;51.992;5.924;2023-05-10T09:32:39;100574.34;;;16.08;74.66
69402;BME280;56589;51.992;5.924;2023-05-10T09:35:07;100571.53;;;16.00;74.38
69402;BME280;56589;51.992;5.924;2023-05-10T09:37:34;100579.06;;;15.95;74.44
69402;BME280;56589;51.992;5.924;2023-05-10T09:40:00;100576.97;;;15.89;73.64
69402;BME280;56589;51.992;5.924;2023-05-10T09:42:30;100589.78;;;15.84;73.40
69402;BME280;56589;51.992;5.924;2023-05-10T09:45:03;100585.47;;;15.83;74.12
69402;BME280;56589;51.992;5.924;2023-05-10T09:47:31;100581.69;;;15.85;73.57
69402;BME280;56589;51.992;5.924;2023-05-10T09:49:58;100582.81;;;15.83;73.32
69402;BME280;56589;51.992;5.924;2023-05-10T09:52:24;100584.91;;;15.89;73.06
69402;BME280;56589;51.992;5.924;2023-05-10T09:54:53;100594.69;;;15.88;72.76
69402;BME280;56589;51.992;5.924;2023-05-10T09:57:20;100593.66;;;15.80;72.13
69402;BME280;56589;51.992;5.924;2023-05-10T09:59:48;100595.56;;;15.68;72.43
69402;BME280;56589;51.992;5.924;2023-05-10T10:02:17;100592.06;;;15.58;72.60
69402;BME280;56589;51.992;5.924;2023-05-10T10:04:42;100589.97;;;15.52;72.67
69402;BME280;56589;51.992;5.924;2023-05-10T10:07:08;100593.88;;;15.57;73.20
69402;BME280;56589;51.992;5.924;2023-05-10T10:09:34;100590.03;;;15.71;73.29
69402;BME280;56589;51.992;5.924;2023-05-10T10:12:01;100600.91;;;15.87;72.66
69402;BME280;56589;51.992;5.924;2023-05-10T10:14:28;100599.53;;;15.93;72.60
69402;BME280;56589;51.992;5.924;2023-05-10T10:16:55;100602.19;;;15.93;71.96
69402;BME280;56589;51.992;5.924;2023-05-10T10:19:23;100608.19;;;15.95;72.46
69402;BME280;56589;51.992;5.924;2023-05-10T10:21:50;100605.13;;;15.90;71.71
69402;BME280;56589;51.992;5.924;2023-05-10T10:24:16;100603.16;;;15.82;71.52
69402;BME280;56589;51.992;5.924;2023-05-10T10:26:42;100607.31;;;15.75;71.79
69402;BME280;56589;51.992;5.924;2023-05-10T10:29:21;100607.81;;;15.69;71.73
69402;BME280;56589;51.992;5.924;2023-05-10T10:31:56;100604.19;;;15.60;72.19
69402;BME280;56589;51.992;5.924;2023-05-10T10:34:36;100598.19;;;15.58;71.99
69402;BME280;56589;51.992;5.924;2023-05-10T10:37:04;100609.63;;;15.59;71.78
69402;BME280;56589;51.992;5.924;2023-05-10T10:39:31;100604.19;;;15.60;71.67
69402;BME280;56589;51.992;5.924;2023-05-10T10:41:59;100598.88;;;15.60;71.30
69402;BME280;56589;51.992;5.924;2023-05-10T10:44:26;100612.41;;;15.57;71.49
69402;BME280;56589;51.992;5.924;2023-05-10T10:47:01;100604.19;;;15.60;71.58
69402;BME280;56589;51.992;5.924;2023-05-10T10:49:30;100600.75;;;15.70;72.00
69402;BME280;56589;51.992;5.924;2023-05-10T10:52:20;100600.38;;;15.84;71.28
69402;BME280;56589;51.992;5.924;2023-05-10T10:54:51;100607.50;;;16.03;71.69
69402;BME280;56589;51.992;5.924;2023-05-10T10:57:19;100602.38;;;16.21;71.29
69402;BME280;56589;51.992;5.924;2023-05-10T10:59:45;100604.31;;;16.38;70.82
69402;BME280;56589;51.992;5.924;2023-05-10T11:02:32;100610.16;;;16.51;70.09
69402;BME280;56589;51.992;5.924;2023-05-10T11:04:59;100610.59;;;16.56;70.50
69402;BME280;56589;51.992;5.924;2023-05-10T11:07:27;100618.50;;;16.66;69.90
69402;BME280;56589;51.992;5.924;2023-05-10T11:09:53;100614.06;;;16.76;70.18
69402;BME280;56589;51.992;5.924;2023-05-10T11:12:19;100613.66;;;16.81;69.95
69402;BME280;56589;51.992;5.924;2023-05-10T11:14:49;100619.22;;;16.87;69.18
69402;BME280;56589;51.992;5.924;2023-05-10T11:17:25;100613.59;;;16.90;68.84
69402;BME280;56589;51.992;5.924;2023-05-10T11:20:06;100618.50;;;16.95;68.73
69402;BME280;56589;51.992;5.924;2023-05-10T11:22:49;100616.81;;;16.94;68.27
69402;BME280;56589;51.992;5.924;2023-05-10T11:25:15;100621.25;;;17.03;69.19
69402;BME280;56589;51.992;5.924;2023-05-10T11:27:41;100619.00;;;17.18;68.78
69402;BME280;56589;51.992;5.924;2023-05-10T11:30:10;100624.25;;;17.27;67.98
69402;BME280;56589;51.992;5.924;2023-05-10T11:32:37;100621.84;;;17.34;67.09
69402;BME280;56589;51.992;5.924;2023-05-10T11:35:07;100620.31;;;17.32;66.62
69402;BME280;56589;51.992;5.924;2023-05-10T11:37:42;100628.53;;;17.38;67.37
69402;BME280;56589;51.992;5.924;2023-05-10T11:40:13;100621.13;;;17.42;66.55
69402;BME280;56589;51.992;5.924;2023-05-10T11:42:39;100627.13;;;17.44;66.65
69402;BME280;56589;51.992;5.924;2023-05-10T11:45:06;100634.09;;;17.45;65.90
69402;BME280;56589;51.992;5.924;2023-05-10T11:47:33;100626.81;;;17.47;66.87
69402;BME280;56589;51.992;5.924;2023-05-10T11:49:59;100627.53;;;17.49;65.91
69402;BME280;56589;51.992;5.924;2023-05-10T11:52:25;100628.03;;;17.52;65.20
69402;BME280;56589;51.992;5.924;2023-05-10T11:54:54;100628.00;;;17.62;66.11
69402;BME280;56589;51.992;5.924;2023-05-10T11:57:20;100635.81;;;17.73;65.76
69402;BME280;56589;51.992;5.924;2023-05-10T11:59:53;100629.50;;;17.74;65.24
69402;BME280;56589;51.992;5.924;2023-05-10T12:02:19;100621.09;;;17.79;64.50
69402;BME280;56589;51.992;5.924;2023-05-10T12:04:44;100635.25;;;17.70;64.34
69402;BME280;56589;51.992;5.924;2023-05-10T12:07:10;100633.84;;;17.66;64.36
69402;BME280;56589;51.992;5.924;2023-05-10T12:09:36;100633.75;;;17.67;64.54
69402;BME280;56589;51.992;5.924;2023-05-10T12:12:05;100636.66;;;17.74;64.27
69402;BME280;56589;51.992;5.924;2023-05-10T12:14:33;100624.66;;;17.70;63.80
69402;BME280;56589;51.992;5.924;2023-05-10T12:16:59;100634.91;;;17.55;63.52
69402;BME280;56589;51.992;5.924;2023-05-10T12:19:25;100632.03;;;17.39;64.55
69402;BME280;56589;51.992;5.924;2023-05-10T12:21:51;100627.13;;;17.44;65.19
69402;BME280;56589;51.992;5.924;2023-05-10T12:24:17;100637.94;;;17.60;65.22
69402;BME280;56589;51.992;5.924;2023-05-10T12:26:43;100625.28;;;17.82;64.35
69402;BME280;56589;51.992;5.924;2023-05-10T12:29:17;100637.59;;;18.00;63.77
69402;BME280;56589;51.992;5.924;2023-05-10T12:31:53;100631.25;;;18.11;63.46
69402;BME280;56589;51.992;5.924;2023-05-10T12:34:25;100636.84;;;18.26;62.83
69402;BME280;56589;51.992;5.924;2023-05-10T12:36:52;100635.41;;;18.31;62.94
69402;BME280;56589;51.992;5.924;2023-05-10T12:39:17;100640.13;;;18.38;61.88
69402;BME280;56589;51.992;5.924;2023-05-10T12:41:43;100633.69;;;18.40;61.71
69402;BME280;56589;51.992;5.924;2023-05-10T12:44:09;100635.63;;;18.38;61.39
69402;BME280;56589;51.992;5.924;2023-05-10T12:46:40;100648.94;;;18.38;61.01
69402;BME280;56589;51.992;5.924;2023-05-10T12:49:05;100637.31;;;18.39;61.63
69402;BME280;56589;51.992;5.924;2023-05-10T12:51:31;100645.00;;;18.42;62.00
69402;BME280;56589;51.992;5.924;2023-05-10T12:53:57;100646.59;;;18.53;61.34
69402;BME280;56589;51.992;5.924;2023-05-10T12:56:23;100641.88;;;18.47;60.80